Terminal Aerodrome Forecast
Issued by NWS

Home | Current Version | Previous Version | Text Only | Print | Product List | Glossary On
Versions: 1 2 3 4 5 6 7 8 9 10 11 12 13 14 15 16
179
FTUS44 KTSA 241725
TAFFYV
TAF
KFYV 241725Z 2418/2518 17017G33KT P6SM VCTS SCT040CB OVC090
      TEMPO 2420/2424 3SM TSRA OVC025CB
     FM250000 18012G20KT P6SM VCSH BKN025
     FM250600 18006KT P6SM BKN025
     FM251000 VRB05KT P6SM VCTS OVC025CB=

USA.gov is the U.S. government's official web portal to all federal, state and local government web resources and services.